Time;durP1;ratioP1;P1;durP2;ratioP2;P2;SDS_P1;SDS_P2;PMS_P1;PMS_P2;Temp;Humidity;BMP_temperature;BMP_pressure;BME280_temperature;BME280_humidity;BME280_pressure;Samples;Min_cycle;Max_cycle;Signal;HPM_P1;HPM_P2
2023/02/22 00:00:51;;;;;;;;;;;;;;;9.31;56.87;97052.00;4980293;28;19920;-77
2023/02/22 00:03:23;;;;;;;;;;;;;;;9.28;57.01;97042.88;4964641;28;19913;-78
2023/02/22 00:05:52;;;;;;;;;;;;;;;9.29;57.04;97041.06;4965168;28;19934;-78
2023/02/22 00:08:18;;;;;;;;;;;;;;;9.27;57.28;97041.31;4968679;28;20388;-79
2023/02/22 00:10:43;;;;;;;;;;;;;;;9.28;57.31;97042.09;4986640;28;20422;-78
2023/02/22 00:13:09;;;;;;;;;;;;;;;9.33;56.90;97044.75;4965084;28;20014;-78
2023/02/22 00:15:35;;;;;;;;;;;;;;;9.43;56.33;97041.53;4981168;28;19940;-78
2023/02/22 00:18:01;;;;;;;;;;;;;;;9.54;55.68;97044.00;4981713;28;20385;-78
2023/02/22 00:20:26;;;;;;;;;;;;;;;9.54;55.06;97044.00;4961873;28;19929;-78
2023/02/22 00:22:52;;;;;;;;;;;;;;;9.38;55.47;97043.00;4972658;28;19913;-78
2023/02/22 00:25:18;;;;;;;;;;;;;;;9.22;56.19;97040.44;4972435;28;19925;-78
2023/02/22 00:27:44;;;;;;;;;;;;;;;9.33;56.35;97044.75;4987750;28;20357;-78
2023/02/22 00:30:13;;;;;;;;;;;;;;;9.54;55.57;97045.81;4986795;28;19921;-78
2023/02/22 00:32:38;;;;;;;;;;;;;;;9.52;55.17;97042.66;4971676;28;19914;-78
2023/02/22 00:35:07;;;;;;;;;;;;;;;9.44;55.44;97038.69;4983563;28;19928;-78
2023/02/22 00:37:34;;;;;;;;;;;;;;;9.34;55.51;97041.91;4984154;28;19918;-79
2023/02/22 00:39:59;;;;;;;;;;;;;;;9.28;55.62;97036.88;4988750;28;19918;-77
2023/02/22 00:42:24;;;;;;;;;;;;;;;9.13;55.97;97040.06;4988400;28;20393;-78
2023/02/22 00:44:50;;;;;;;;;;;;;;;8.77;57.21;97044.69;4972362;28;19920;-78
2023/02/22 00:47:15;;;;;;;;;;;;;;;8.55;57.86;97035.03;4968428;28;19918;-78
2023/02/22 00:49:40;;;;;;;;;;;;;;;8.54;58.05;97043.03;4971432;28;20459;-78
2023/02/22 00:52:06;;;;;;;;;;;;;;;8.52;58.18;97040.69;4969429;28;19957;-78
2023/02/22 00:54:31;;;;;;;;;;;;;;;8.36;58.63;97044.81;4984863;28;19920;-79
2023/02/22 00:56:57;;;;;;;;;;;;;;;8.29;58.76;97038.94;4989369;28;20312;-79
2023/02/22 00:59:22;;;;;;;;;;;;;;;8.15;59.62;97037.66;4956622;28;19913;-78
2023/02/22 01:01:47;;;;;;;;;;;;;;;8.06;59.69;97032.84;4967971;28;19923;-78
2023/02/22 01:04:13;;;;;;;;;;;;;;;8.08;59.76;97030.00;4973631;28;19922;-78
2023/02/22 01:06:38;;;;;;;;;;;;;;;8.07;60.09;97033.63;4989697;28;19922;-78
2023/02/22 01:09:03;;;;;;;;;;;;;;;8.10;60.01;97032.38;4983371;28;19917;-78
2023/02/22 01:11:29;;;;;;;;;;;;;;;8.11;59.80;97039.16;4986218;28;20387;-78
2023/02/22 01:13:56;;;;;;;;;;;;;;;8.13;60.23;97024.16;4973881;28;20234;-78
2023/02/22 01:16:21;;;;;;;;;;;;;;;8.13;60.49;97029.34;4960733;28;19936;-78
2023/02/22 01:18:47;;;;;;;;;;;;;;;8.15;60.48;97030.66;4981447;28;20374;-78
2023/02/22 01:21:12;;;;;;;;;;;;;;;8.25;60.01;97030.06;4987610;28;19914;-78
2023/02/22 01:23:37;;;;;;;;;;;;;;;8.20;60.57;97027.38;4967332;28;20016;-78
2023/02/22 01:26:04;;;;;;;;;;;;;;;8.17;60.77;97022.66;4944013;28;19918;-78
2023/02/22 01:28:30;;;;;;;;;;;;;;;8.17;60.91;97014.88;4981788;28;19914;-78
2023/02/22 01:30:55;;;;;;;;;;;;;;;8.22;60.57;97014.97;4966844;28;19982;-78
2023/02/22 01:33:21;;;;;;;;;;;;;;;8.22;60.31;97020.16;4967391;28;19925;-79
2023/02/22 01:35:46;;;;;;;;;;;;;;;8.24;60.89;97020.69;4986662;28;19959;-78
2023/02/22 01:38:12;;;;;;;;;;;;;;;8.24;60.70;97018.09;4968360;28;19917;-79
2023/02/22 01:40:40;;;;;;;;;;;;;;;8.24;60.54;97012.91;4984163;28;20316;-78
2023/02/22 01:43:20;;;;;;;;;;;;;;;8.20;60.51;97015.19;4949708;28;20012;-78
2023/02/22 01:45:45;;;;;;;;;;;;;;;8.14;60.16;97016.13;4985564;28;20408;-78
2023/02/22 01:48:11;;;;;;;;;;;;;;;8.14;60.25;97012.75;4988943;28;19914;-78
2023/02/22 01:50:37;;;;;;;;;;;;;;;8.05;60.16;97015.72;4988868;28;20314;-78
2023/02/22 01:53:02;;;;;;;;;;;;;;;7.97;60.18;97008.31;4973363;28;19913;-78
2023/02/22 01:55:27;;;;;;;;;;;;;;;7.94;60.07;97008.00;4971445;28;19918;-78
2023/02/22 01:57:53;;;;;;;;;;;;;;;7.88;60.25;97002.72;4962721;28;19917;-78
2023/02/22 02:00:26;;;;;;;;;;;;;;;7.81;60.22;97003.84;4985392;28;19917;-77
2023/02/22 02:02:55;;;;;;;;;;;;;;;7.81;60.21;96998.66;4979825;23;19929;-78
2023/02/22 02:05:23;;;;;;;;;;;;;;;7.72;60.61;97000.84;4973025;28;19933;-78
2023/02/22 02:07:48;;;;;;;;;;;;;;;7.67;60.53;96998.13;4990186;28;19976;-78
2023/02/22 02:10:14;;;;;;;;;;;;;;;7.57;60.92;96980.59;4954162;28;20368;-78
2023/02/22 02:12:41;;;;;;;;;;;;;;;7.68;61.62;96992.72;4967537;28;19914;-79
2023/02/22 02:15:16;;;;;;;;;;;;;;;7.72;61.59;96992.28;4960944;28;19922;-78
2023/02/22 02:17:42;;;;;;;;;;;;;;;7.75;61.91;96989.22;4957096;28;19920;-78
2023/02/22 02:20:10;;;;;;;;;;;;;;;7.76;61.79;96985.59;4956110;28;19914;-78
2023/02/22 02:22:54;;;;;;;;;;;;;;;7.82;62.01;96982.88;4988837;28;19917;-78
2023/02/22 02:25:19;;;;;;;;;;;;;;;7.87;61.75;96977.00;4985402;28;19933;-78
2023/02/22 02:28:04;;;;;;;;;;;;;;;7.94;61.39;96975.06;4968283;28;19937;-78
2023/02/22 02:30:35;;;;;;;;;;;;;;;7.99;61.25;96969.97;4964791;28;19918;-77
2023/02/22 02:33:03;;;;;;;;;;;;;;;7.97;60.90;96969.41;4986239;28;19914;-78
2023/02/22 02:35:31;;;;;;;;;;;;;;;8.00;60.90;96965.56;4966566;28;19917;-78
2023/02/22 02:37:56;;;;;;;;;;;;;;;8.04;60.70;96961.50;4970491;28;19953;-78
2023/02/22 02:40:28;;;;;;;;;;;;;;;8.05;60.75;96958.69;4970267;28;19967;-78
2023/02/22 02:42:56;;;;;;;;;;;;;;;8.03;60.66;96965.88;4988264;28;19925;-78
2023/02/22 02:45:27;;;;;;;;;;;;;;;7.99;60.91;96959.59;4971204;28;19921;-78
2023/02/22 02:47:56;;;;;;;;;;;;;;;7.92;60.69;96952.97;4955346;28;20307;-78
2023/02/22 02:50:31;;;;;;;;;;;;;;;7.91;60.82;96954.00;4976709;28;19917;-78
2023/02/22 02:52:57;;;;;;;;;;;;;;;7.88;60.87;96950.06;4971417;28;19913;-78
2023/02/22 02:55:22;;;;;;;;;;;;;;;7.86;60.85;96959.88;4969484;28;20273;-78
2023/02/22 02:57:48;;;;;;;;;;;;;;;7.88;60.87;96953.47;4948781;28;19914;-77
2023/02/22 03:00:23;;;;;;;;;;;;;;;7.85;60.40;96953.13;4986505;28;20304;-77
2023/02/22 03:03:07;;;;;;;;;;;;;;;7.89;60.88;96949.03;4980644;28;20037;-78
2023/02/22 03:05:51;;;;;;;;;;;;;;;7.86;60.58;96947.72;4967001;28;19913;-78
2023/02/22 03:08:28;;;;;;;;;;;;;;;7.85;60.49;96937.59;4954621;28;19925;-78
2023/02/22 03:10:54;;;;;;;;;;;;;;;7.82;60.68;96938.03;4968499;28;19960;-78
2023/02/22 03:13:54;;;;;;;;;;;;;;;7.79;60.72;96935.91;4964981;28;19999;-78
2023/02/22 03:16:22;;;;;;;;;;;;;;;7.77;60.60;96941.31;4945728;29;19915;-78
2023/02/22 03:18:55;;;;;;;;;;;;;;;7.71;60.80;96931.91;4930764;29;20433;-78
2023/02/22 03:21:20;;;;;;;;;;;;;;;7.66;60.77;96930.00;4918597;29;20342;-78
2023/02/22 03:24:04;;;;;;;;;;;;;;;7.59;61.47;96931.94;4939133;29;19977;-79
2023/02/22 03:26:33;;;;;;;;;;;;;;;7.55;61.06;96928.22;4927021;29;19921;-77
2023/02/22 03:28:58;;;;;;;;;;;;;;;7.54;61.53;96926.66;4927211;29;19919;-78
2023/02/22 03:31:25;;;;;;;;;;;;;;;7.51;61.60;96927.13;4919344;29;20294;-78
2023/02/22 03:34:09;;;;;;;;;;;;;;;7.52;61.47;96928.66;4941957;29;20182;-78
2023/02/22 03:36:39;;;;;;;;;;;;;;;7.49;61.88;96929.94;4937236;28;19981;-78
2023/02/22 03:39:05;;;;;;;;;;;;;;;7.48;61.81;96924.97;4930253;29;19929;-78
2023/02/22 03:41:30;;;;;;;;;;;;;;;7.39;61.50;96924.56;4930389;29;19918;-79
2023/02/22 03:44:05;;;;;;;;;;;;;;;7.62;60.57;96917.72;4910395;29;19914;-78
2023/02/22 03:46:31;;;;;;;;;;;;;;;7.63;60.40;96914.91;4932598;29;20293;-78
2023/02/22 03:49:01;;;;;;;;;;;;;;;7.56;59.70;96924.63;4930126;29;20077;-79
2023/02/22 03:51:26;;;;;;;;;;;;;;;7.56;58.76;96923.84;4972174;28;20395;-77
2023/02/22 03:53:52;;;;;;;;;;;;;;;7.43;59.37;96924.88;4945000;28;19913;-78
2023/02/22 03:56:37;;;;;;;;;;;;;;;7.40;59.51;96922.75;4972239;28;19999;-77
2023/02/22 03:59:06;;;;;;;;;;;;;;;7.38;59.37;96932.56;4937611;28;19913;-78
2023/02/22 04:01:31;;;;;;;;;;;;;;;7.53;59.04;96919.13;4966663;28;20286;-78
2023/02/22 04:03:56;;;;;;;;;;;;;;;7.36;60.19;96919.06;4954181;28;19924;-78
2023/02/22 04:06:21;;;;;;;;;;;;;;;7.56;58.97;96923.84;4988830;28;19918;-78
2023/02/22 04:08:47;;;;;;;;;;;;;;;7.85;58.79;96920.22;4958272;28;19940;-78
2023/02/22 04:11:12;;;;;;;;;;;;;;;7.95;57.92;96924.00;4970069;28;19914;-78
2023/02/22 04:13:38;;;;;;;;;;;;;;;8.04;57.51;96931.16;4974296;28;19913;-78
2023/02/22 04:16:03;;;;;;;;;;;;;;;8.05;57.43;96924.97;4970319;28;20144;-77
2023/02/22 04:18:28;;;;;;;;;;;;;;;7.82;57.20;96917.31;4957704;28;19914;-78
2023/02/22 04:20:54;;;;;;;;;;;;;;;7.65;58.26;96923.22;4991136;28;20398;-77
2023/02/22 04:23:19;;;;;;;;;;;;;;;7.60;58.90;96917.16;4956533;28;20428;-78
2023/02/22 04:25:44;;;;;;;;;;;;;;;7.63;59.33;96917.50;4988357;28;20388;-78
2023/02/22 04:28:10;;;;;;;;;;;;;;;7.59;59.36;96913.81;4972001;28;19969;-78
2023/02/22 04:30:35;;;;;;;;;;;;;;;7.52;59.45;96917.53;4991875;28;20328;-78
2023/02/22 04:33:00;;;;;;;;;;;;;;;7.51;60.22;96911.56;4973857;28;19968;-78
2023/02/22 04:35:25;;;;;;;;;;;;;;;7.44;60.30;96916.09;4969158;28;20356;-78
2023/02/22 04:37:51;;;;;;;;;;;;;;;7.45;60.34;96917.66;4990235;28;19957;-77
2023/02/22 04:40:16;;;;;;;;;;;;;;;7.42;60.70;96915.53;4951577;28;20227;-78
2023/02/22 04:42:41;;;;;;;;;;;;;;;7.43;60.68;96917.88;4958289;28;20499;-78
2023/02/22 04:45:07;;;;;;;;;;;;;;;7.47;60.65;96905.25;4974168;28;19918;-78
2023/02/22 04:47:33;;;;;;;;;;;;;;;7.47;61.21;96911.25;4955720;28;19914;-78
2023/02/22 04:49:59;;;;;;;;;;;;;;;7.49;60.66;96919.56;4969900;28;19939;-78
2023/02/22 04:52:25;;;;;;;;;;;;;;;7.54;60.38;96908.53;4973918;28;19921;-77
2023/02/22 04:54:50;;;;;;;;;;;;;;;7.49;60.53;96911.03;4955644;28;19920;-78
2023/02/22 04:57:15;;;;;;;;;;;;;;;7.53;60.48;96908.75;4969609;28;19927;-78
2023/02/22 04:59:40;;;;;;;;;;;;;;;7.75;58.74;96909.66;4948048;28;19914;-78
2023/02/22 05:02:06;;;;;;;;;;;;;;;7.83;58.42;96909.31;4952241;28;19925;-78
2023/02/22 05:04:31;;;;;;;;;;;;;;;7.93;58.10;96913.06;4957574;28;20004;-78
2023/02/22 05:06:56;;;;;;;;;;;;;;;7.91;57.68;96909.94;4953100;28;19913;-78
2023/02/22 05:09:21;;;;;;;;;;;;;;;7.80;57.69;96916.75;4959468;28;19972;-78
2023/02/22 05:11:47;;;;;;;;;;;;;;;7.71;58.17;96905.16;4988967;28;20783;-78
2023/02/22 05:14:12;;;;;;;;;;;;;;;7.57;58.08;96915.03;4972165;28;19921;-78
2023/02/22 05:16:37;;;;;;;;;;;;;;;7.69;58.03;96913.97;4972400;28;20254;-78
2023/02/22 05:19:03;;;;;;;;;;;;;;;7.83;57.61;96906.72;4955344;28;19914;-78
2023/02/22 05:21:28;;;;;;;;;;;;;;;7.90;57.39;96909.16;4955037;28;19933;-78
2023/02/22 05:23:53;;;;;;;;;;;;;;;7.95;57.64;96904.06;4972915;28;19925;-77
2023/02/22 05:26:18;;;;;;;;;;;;;;;8.01;57.31;96916.06;4969623;28;19921;-78
2023/02/22 05:28:44;;;;;;;;;;;;;;;8.01;57.58;96910.88;4966417;28;20016;-78
2023/02/22 05:31:09;;;;;;;;;;;;;;;7.95;57.28;96909.25;4968672;28;20096;-78
2023/02/22 05:33:34;;;;;;;;;;;;;;;7.95;57.40;96911.84;4969939;28;19921;-78
2023/02/22 05:36:00;;;;;;;;;;;;;;;7.97;57.05;96914.16;4969579;28;19913;-77
2023/02/22 05:38:25;;;;;;;;;;;;;;;7.96;57.09;96907.44;4965667;28;19959;-77
2023/02/22 05:40:50;;;;;;;;;;;;;;;7.86;57.12;96910.63;4978529;28;19917;-78
2023/02/22 05:43:15;;;;;;;;;;;;;;;7.84;57.51;96910.84;4989686;28;19913;-78
2023/02/22 05:45:41;;;;;;;;;;;;;;;7.67;57.75;96908.22;4955260;28;20380;-78
2023/02/22 05:48:06;;;;;;;;;;;;;;;7.46;58.23;96914.06;4940696;28;19987;-78
2023/02/22 05:50:32;;;;;;;;;;;;;;;7.34;58.96;96905.53;4969739;28;20119;-78
2023/02/22 05:52:57;;;;;;;;;;;;;;;7.25;58.63;96900.72;4975678;28;19914;-78
2023/02/22 05:55:22;;;;;;;;;;;;;;;7.20;59.30;96905.81;4968902;28;19914;-78
2023/02/22 05:57:48;;;;;;;;;;;;;;;7.28;59.19;96896.88;4952572;28;19914;-77
2023/02/22 06:00:17;;;;;;;;;;;;;;;7.43;58.52;96904.16;4962967;28;20011;-77
2023/02/22 06:02:43;;;;;;;;;;;;;;;7.53;58.70;96906.94;4957716;28;20154;-78
2023/02/22 06:05:08;;;;;;;;;;;;;;;7.56;58.46;96903.88;4953331;28;21171;-78
2023/02/22 06:07:33;;;;;;;;;;;;;;;7.50;58.51;96905.63;4937929;28;19949;-78
2023/02/22 06:09:58;;;;;;;;;;;;;;;7.32;58.93;96903.97;4988704;28;19925;-78
2023/02/22 06:12:24;;;;;;;;;;;;;;;7.20;59.57;96900.63;4988317;28;20060;-77
2023/02/22 06:14:49;;;;;;;;;;;;;;;7.19;58.96;96899.03;4955908;28;19918;-77
2023/02/22 06:17:16;;;;;;;;;;;;;;;7.16;59.31;96894.31;4988655;28;20273;-77
2023/02/22 06:19:41;;;;;;;;;;;;;;;7.22;59.65;96901.16;4987669;28;20028;-78
2023/02/22 06:22:06;;;;;;;;;;;;;;;7.32;58.87;96901.38;4956135;28;20016;-78
2023/02/22 06:24:32;;;;;;;;;;;;;;;7.37;58.35;96897.28;4946589;28;20273;-78
2023/02/22 06:26:58;;;;;;;;;;;;;;;7.32;58.95;96898.78;4967859;28;19968;-78
2023/02/22 06:29:23;;;;;;;;;;;;;;;7.32;59.03;96898.00;4978714;28;19918;-78
2023/02/22 06:31:49;;;;;;;;;;;;;;;7.42;58.56;96900.78;4970059;28;19945;-78
2023/02/22 06:34:14;;;;;;;;;;;;;;;7.42;58.70;96903.38;4963153;28;20254;-78
2023/02/22 06:36:41;;;;;;;;;;;;;;;7.46;57.90;96903.69;4970498;28;20004;-78
2023/02/22 06:39:08;;;;;;;;;;;;;;;7.47;57.46;96900.06;4946642;28;19918;-78
2023/02/22 06:41:38;;;;;;;;;;;;;;;7.43;58.42;96904.16;4987186;28;20321;-78
2023/02/22 06:44:04;;;;;;;;;;;;;;;7.48;58.02;96910.22;4987618;28;20350;-77
2023/02/22 06:46:29;;;;;;;;;;;;;;;7.41;57.84;96906.19;4972355;28;19996;-78
2023/02/22 06:48:56;;;;;;;;;;;;;;;7.25;57.94;96903.31;4954954;28;19925;-78
2023/02/22 06:51:21;;;;;;;;;;;;;;;7.28;57.87;96904.63;4970191;28;19929;-78
2023/02/22 06:53:46;;;;;;;;;;;;;;;7.20;58.13;96899.84;4967033;28;19914;-78
2023/02/22 06:56:12;;;;;;;;;;;;;;;7.16;56.67;96909.84;4954369;28;19920;-76
2023/02/22 06:58:37;;;;;;;;;;;;;;;7.21;57.47;96912.53;4963706;28;19922;-77
2023/02/22 07:01:02;;;;;;;;;;;;;;;7.21;57.58;96912.53;4953996;28;19956;-78
2023/02/22 07:03:27;;;;;;;;;;;;;;;7.21;57.52;96909.94;4954413;28;19926;-78
2023/02/22 07:05:54;;;;;;;;;;;;;;;7.21;57.71;96917.72;4958122;28;19925;-78
2023/02/22 07:08:19;;;;;;;;;;;;;;;7.27;58.03;96916.81;4955345;28;19926;-78
2023/02/22 07:10:44;;;;;;;;;;;;;;;7.21;57.54;96920.31;4954192;28;19921;-77
2023/02/22 07:13:10;;;;;;;;;;;;;;;7.18;58.78;96918.19;4968140;28;19914;-78
2023/02/22 07:15:35;;;;;;;;;;;;;;;7.24;58.69;96919.84;4956931;28;19918;-78
2023/02/22 07:18:00;;;;;;;;;;;;;;;7.32;60.08;96921.31;4969925;28;19914;-78
2023/02/22 07:20:27;;;;;;;;;;;;;;;7.56;62.58;96929.78;4966057;28;19921;-78
2023/02/22 07:22:52;;;;;;;;;;;;;;;7.78;63.36;96916.19;4933528;28;19914;-78
2023/02/22 07:25:18;;;;;;;;;;;;;;;8.20;62.21;96923.63;4951582;28;19969;-78
2023/02/22 07:27:43;;;;;;;;;;;;;;;8.60;61.29;96927.91;4964829;28;19940;-78
2023/02/22 07:30:15;;;;;;;;;;;;;;;8.83;60.81;96921.75;4948971;28;19921;-78
2023/02/22 07:32:44;;;;;;;;;;;;;;;9.10;60.04;96929.66;4987555;28;19914;-78
2023/02/22 07:35:13;;;;;;;;;;;;;;;9.33;59.22;96927.84;4969923;28;20212;-78
2023/02/22 07:37:38;;;;;;;;;;;;;;;9.52;58.36;96923.88;4969407;28;19913;-78
2023/02/22 07:40:03;;;;;;;;;;;;;;;9.61;59.06;96926.06;4968026;28;20431;-77
2023/02/22 07:42:28;;;;;;;;;;;;;;;9.84;57.98;96925.78;4967210;28;19920;-78
2023/02/22 07:44:54;;;;;;;;;;;;;;;10.00;58.00;96933.75;4986093;28;19921;-78
2023/02/22 07:47:22;;;;;;;;;;;;;;;10.13;57.36;96928.13;4954272;28;19914;-77
2023/02/22 07:49:48;;;;;;;;;;;;;;;10.27;56.79;96924.09;4971511;28;20265;-78
2023/02/22 07:52:13;;;;;;;;;;;;;;;10.41;56.45;96931.50;4953758;28;19924;-77
2023/02/22 07:54:38;;;;;;;;;;;;;;;10.62;55.94;96930.59;4965999;28;19914;-78
2023/02/22 07:57:04;;;;;;;;;;;;;;;10.75;56.07;96924.19;4952529;28;20032;-78
2023/02/22 07:59:29;;;;;;;;;;;;;;;10.79;55.90;96927.84;4984338;28;20025;-78
2023/02/22 08:01:55;;;;;;;;;;;;;;;11.05;54.86;96928.00;4971291;28;20361;-78
2023/02/22 08:04:21;;;;;;;;;;;;;;;11.12;54.51;96923.38;4966554;28;20009;-78
2023/02/22 08:06:46;;;;;;;;;;;;;;;11.23;54.86;96926.78;4946687;28;20005;-78
2023/02/22 08:09:11;;;;;;;;;;;;;;;11.24;54.56;96929.16;4945394;28;19918;-78
2023/02/22 08:11:36;;;;;;;;;;;;;;;11.47;53.65;96934.97;4969345;28;20369;-78
2023/02/22 08:14:02;;;;;;;;;;;;;;;11.45;53.21;96929.22;4970016;28;20356;-78
2023/02/22 08:16:27;;;;;;;;;;;;;;;11.39;52.74;96927.63;4970450;28;20332;-78
2023/02/22 08:18:52;;;;;;;;;;;;;;;11.64;52.62;96928.78;4937087;28;19925;-78
2023/02/22 08:21:17;;;;;;;;;;;;;;;11.64;52.93;96923.56;4970942;28;20132;-78
2023/02/22 08:23:43;;;;;;;;;;;;;;;11.67;52.27;96923.00;4977938;28;20581;-77
2023/02/22 08:26:09;;;;;;;;;;;;;;;11.55;53.45;96926.66;4970560;28;19913;-78
2023/02/22 08:28:34;;;;;;;;;;;;;;;11.63;52.93;96930.56;4970490;28;19932;-78
2023/02/22 08:31:00;;;;;;;;;;;;;;;11.58;53.01;96930.56;4957411;28;20004;-78
2023/02/22 08:33:25;;;;;;;;;;;;;;;11.56;53.66;96924.81;4971314;28;19918;-78
2023/02/22 08:35:50;;;;;;;;;;;;;;;11.69;53.43;96931.38;4986691;28;19924;-79
2023/02/22 08:38:23;;;;;;;;;;;;;;;11.76;52.82;96932.69;4958965;28;19996;-78
2023/02/22 08:40:49;;;;;;;;;;;;;;;11.79;52.96;96931.41;4988252;28;19921;-78
2023/02/22 08:43:14;;;;;;;;;;;;;;;11.86;53.93;96925.94;4968319;28;20375;-78
2023/02/22 08:45:39;;;;;;;;;;;;;;;11.85;53.36;96929.59;4981479;28;19921;-78
2023/02/22 08:48:05;;;;;;;;;;;;;;;11.85;53.82;96926.97;4974107;28;19948;-78
2023/02/22 08:50:32;;;;;;;;;;;;;;;11.87;53.51;96927.50;4991788;28;20380;-79
2023/02/22 08:52:58;;;;;;;;;;;;;;;11.96;53.49;96925.97;4972461;28;19967;-78
2023/02/22 08:55:24;;;;;;;;;;;;;;;12.12;52.78;96924.97;4990500;28;20484;-78
2023/02/22 08:58:02;;;;;;;;;;;;;;;12.20;53.21;96912.44;4973484;28;19918;-78
2023/02/22 09:00:29;;;;;;;;;;;;;;;12.40;53.48;96919.47;4973949;28;19913;-78
2023/02/22 09:02:54;;;;;;;;;;;;;;;12.63;53.00;96932.00;4969101;28;20280;-80
2023/02/22 09:05:20;;;;;;;;;;;;;;;12.79;52.82;96924.16;4973484;28;19922;-78
2023/02/22 09:07:45;;;;;;;;;;;;;;;12.88;52.60;96925.16;4976591;28;19914;-78
2023/02/22 09:10:14;;;;;;;;;;;;;;;12.66;53.75;96917.63;4989609;28;19984;-78
2023/02/22 09:12:39;;;;;;;;;;;;;;;12.86;53.96;96919.44;4973899;28;19920;-79
2023/02/22 09:15:05;;;;;;;;;;;;;;;13.05;52.81;96914.41;4966092;28;19918;-79
2023/02/22 09:17:30;;;;;;;;;;;;;;;12.98;54.02;96916.53;4974187;28;19987;-78
2023/02/22 09:19:55;;;;;;;;;;;;;;;13.04;54.40;96912.84;4973940;28;19920;-79
2023/02/22 09:22:20;;;;;;;;;;;;;;;13.27;53.28;96914.06;4966684;28;20333;-78
2023/02/22 09:24:46;;;;;;;;;;;;;;;13.35;54.32;96910.13;4955568;28;19918;-79
2023/02/22 09:27:11;;;;;;;;;;;;;;;13.36;53.74;96909.88;4972749;28;19913;-78
2023/02/22 09:29:36;;;;;;;;;;;;;;;13.49;53.00;96913.75;4988445;28;20367;-78
2023/02/22 09:32:03;;;;;;;;;;;;;;;13.37;54.15;96911.44;4957071;28;19920;-78
2023/02/22 09:34:28;;;;;;;;;;;;;;;13.22;53.97;96904.41;4990337;28;20332;-78
2023/02/22 09:36:54;;;;;;;;;;;;;;;13.58;53.50;96896.44;4965497;28;19924;-79
2023/02/22 09:39:20;;;;;;;;;;;;;;;13.87;52.95;96898.34;4983683;28;19913;-78
2023/02/22 09:42:04;;;;;;;;;;;;;;;13.88;53.11;96901.75;4957015;28;19913;-78
2023/02/22 09:44:46;;;;;;;;;;;;;;;13.93;52.81;96899.09;4961333;28;19914;-78
2023/02/22 09:47:19;;;;;;;;;;;;;;;13.99;53.01;96901.41;4957403;28;19936;-78
2023/02/22 09:49:47;;;;;;;;;;;;;;;14.12;52.33;96897.41;4974081;28;20451;-78
2023/02/22 09:52:15;;;;;;;;;;;;;;;14.26;52.16;96896.75;4972951;28;19976;-78
2023/02/22 09:54:42;;;;;;;;;;;;;;;14.25;52.45;96898.59;4971388;28;19992;-79
2023/02/22 09:57:08;;;;;;;;;;;;;;;14.45;52.30;96896.88;4969683;28;20357;-78
2023/02/22 09:59:36;;;;;;;;;;;;;;;14.41;52.80;96897.41;4980794;28;20417;-78
2023/02/22 10:02:13;;;;;;;;;;;;;;;14.65;52.52;96901.97;4971423;28;19921;-79
2023/02/22 10:04:51;;;;;;;;;;;;;;;14.73;51.98;96898.72;4971763;28;19921;-78
2023/02/22 10:07:37;;;;;;;;;;;;;;;14.63;52.59;96896.19;4990008;28;19913;-78
2023/02/22 10:10:05;;;;;;;;;;;;;;;14.77;51.94;96894.50;4972701;28;20028;-78
2023/02/22 10:12:42;;;;;;;;;;;;;;;14.90;51.72;96884.41;4938025;28;19914;-78
2023/02/22 10:15:17;;;;;;;;;;;;;;;15.07;51.34;96895.22;4986156;28;20296;-79
2023/02/22 10:17:55;;;;;;;;;;;;;;;15.07;51.88;96882.09;4990308;28;20292;-78
2023/02/22 10:20:24;;;;;;;;;;;;;;;15.35;51.17;96884.91;4972958;28;20488;-78
2023/02/22 10:23:03;;;;;;;;;;;;;;;15.45;50.57;96887.41;4972762;28;19914;-78
2023/02/22 10:25:33;;;;;;;;;;;;;;;15.62;49.83;96878.28;4972713;28;19917;-78
2023/02/22 10:28:18;;;;;;;;;;;;;;;15.66;50.16;96874.81;4971271;28;19914;-80
2023/02/22 10:30:55;;;;;;;;;;;;;;;15.87;50.00;96875.31;4952213;28;20306;-79
2023/02/22 10:33:26;;;;;;;;;;;;;;;15.96;50.06;96877.28;4979652;28;20043;-78
2023/02/22 10:35:52;;;;;;;;;;;;;;;16.19;48.66;96872.97;4940419;28;19914;-78
2023/02/22 10:38:25;;;;;;;;;;;;;;;16.11;49.32;96874.44;4988846;28;20029;-79
2023/02/22 10:40:54;;;;;;;;;;;;;;;16.28;49.22;96864.16;4972698;28;20032;-79
2023/02/22 10:43:19;;;;;;;;;;;;;;;16.33;49.59;96873.00;4953205;28;20373;-79
2023/02/22 10:45:45;;;;;;;;;;;;;;;16.26;50.43;96861.03;4969528;28;19914;-79
2023/02/22 10:48:12;;;;;;;;;;;;;;;16.76;48.55;96862.25;4956243;28;19914;-80
2023/02/22 10:50:39;;;;;;;;;;;;;;;16.76;48.73;96867.50;4972404;28;19914;-78
2023/02/22 10:53:05;;;;;;;;;;;;;;;16.86;49.47;96864.72;4982721;28;20357;-79
2023/02/22 10:55:31;;;;;;;;;;;;;;;17.07;48.73;96862.50;4969607;28;20045;-80
2023/02/22 10:58:01;;;;;;;;;;;;;;;17.20;47.76;96864.34;4942073;28;19914;-79
2023/02/22 11:00:28;;;;;;;;;;;;;;;17.22;49.00;96864.03;4971304;28;20381;-80
2023/02/22 11:03:22;;;;;;;;;;;;;;;17.28;47.36;96867.34;4970212;28;19924;-79
2023/02/22 11:05:48;;;;;;;;;;;;;;;17.48;47.39;96866.13;4949369;28;19980;-80
2023/02/22 11:08:14;;;;;;;;;;;;;;;17.34;47.15;96855.63;4955736;28;19917;-80
2023/02/22 11:10:42;;;;;;;;;;;;;;;17.65;46.50;96857.59;4985271;28;20328;-79
2023/02/22 11:13:16;;;;;;;;;;;;;;;17.90;46.07;96851.00;4971849;28;20353;-79
2023/02/22 11:15:43;;;;;;;;;;;;;;;17.87;46.12;96857.66;4990200;28;19913;-79
2023/02/22 11:18:29;;;;;;;;;;;;;;;18.06;46.12;96851.41;4962979;28;19980;-78
2023/02/22 11:21:04;;;;;;;;;;;;;;;18.16;45.92;96856.44;4987442;28;19924;-79
2023/02/22 11:23:30;;;;;;;;;;;;;;;18.24;45.44;96849.66;4968463;28;20389;-78
2023/02/22 14:53:17;;;;;;;;;;;;;;;16.84;49.87;96794.06;4784602;22;20050;-78
2023/02/22 14:55:42;;;;;;;;;;;;;;;16.93;49.62;96798.59;5026076;28;20490;-76
2023/02/22 14:58:11;;;;;;;;;;;;;;;16.87;50.06;96792.66;5011000;28;20008;-76
2023/02/22 15:00:40;;;;;;;;;;;;;;;16.37;51.03;96790.69;5018218;28;19987;-76
2023/02/22 15:03:10;;;;;;;;;;;;;;;16.75;50.23;96793.13;5019251;28;19964;-78
2023/02/22 15:05:39;;;;;;;;;;;;;;;16.62;50.04;96791.28;5027913;28;19959;-76
2023/02/22 15:08:06;;;;;;;;;;;;;;;16.36;50.46;96788.38;5021946;28;20284;-76
2023/02/22 15:10:41;;;;;;;;;;;;;;;16.70;50.07;96787.22;4991686;28;19913;-78
2023/02/22 15:13:12;;;;;;;;;;;;;;;16.67;49.52;96791.19;4986532;28;19916;-76
2023/02/22 15:15:47;;;;;;;;;;;;;;;16.47;50.52;96792.38;5022731;28;19913;-76
2023/02/22 15:18:20;;;;;;;;;;;;;;;16.48;50.42;96799.16;5019831;28;19912;-75
2023/02/22 15:20:48;;;;;;;;;;;;;;;16.63;49.82;96801.50;5020224;28;20016;-76
2023/02/22 15:23:13;;;;;;;;;;;;;;;16.55;49.50;96796.16;5006641;28;19920;-78
2023/02/22 15:25:40;;;;;;;;;;;;;;;16.44;50.23;96793.72;4979248;28;20304;-78
2023/02/22 15:28:08;;;;;;;;;;;;;;;16.36;50.32;96799.66;4985709;28;20385;-78
2023/02/22 15:30:33;;;;;;;;;;;;;;;16.29;50.74;96800.03;4989956;28;19917;-78
2023/02/22 15:33:13;;;;;;;;;;;;;;;16.42;50.28;96798.50;4991101;28;19918;-77
2023/02/22 15:35:39;;;;;;;;;;;;;;;16.31;50.21;96797.09;4992029;28;19918;-78
2023/02/22 15:38:05;;;;;;;;;;;;;;;16.20;50.96;96803.63;5007785;28;19971;-77
2023/02/22 15:40:34;;;;;;;;;;;;;;;16.15;51.03;96799.22;5033121;28;20395;-77
2023/02/22 15:43:01;;;;;;;;;;;;;;;16.22;50.91;96804.88;5023714;28;20335;-78
2023/02/22 15:45:31;;;;;;;;;;;;;;;16.21;51.06;96805.97;5017325;28;19913;-76
2023/02/22 15:47:57;;;;;;;;;;;;;;;15.93;51.76;96807.75;5034356;28;20288;-76
2023/02/22 15:50:26;;;;;;;;;;;;;;;15.85;52.16;96806.56;5017521;28;19920;-76
2023/02/22 15:53:01;;;;;;;;;;;;;;;15.96;51.80;96807.16;5003297;28;20004;-76
2023/02/22 15:55:27;;;;;;;;;;;;;;;15.99;51.78;96811.84;5030044;28;19932;-76
2023/02/22 15:57:52;;;;;;;;;;;;;;;15.90;52.19;96809.09;4998249;28;19913;-76
2023/02/22 16:00:22;;;;;;;;;;;;;;;15.86;52.27;96809.97;4995158;28;19917;-76
2023/02/22 16:02:49;;;;;;;;;;;;;;;16.01;51.77;96814.97;4992571;28;19988;-78
2023/02/22 16:05:17;;;;;;;;;;;;;;;15.97;52.16;96813.19;4997015;28;20356;-78
2023/02/22 16:07:46;;;;;;;;;;;;;;;15.97;52.19;96810.56;4984379;28;20258;-76
2023/02/22 16:10:21;;;;;;;;;;;;;;;15.90;52.01;96811.72;4969933;28;19917;-78
2023/02/22 16:12:47;;;;;;;;;;;;;;;15.99;51.73;96813.69;4990720;28;19921;-78
2023/02/22 16:15:16;;;;;;;;;;;;;;;15.86;51.75;96818.59;5012129;28;19913;-78
2023/02/22 16:17:42;;;;;;;;;;;;;;;16.02;51.89;96810.47;5027705;28;19913;-79
2023/02/22 16:20:10;;;;;;;;;;;;;;;15.99;51.62;96816.31;5013812;28;19913;-78
2023/02/22 16:22:36;;;;;;;;;;;;;;;15.85;52.11;96817.06;5029513;28;19917;-78